Silmalaeka hinnakiri 2017

Hinnakiri kehtib 01.01.2017-31.12.2017.

Tootekood Nimi ISO-kood Täishind Täisealise omaosalus Puudega lapse omaosalus
0101 Isiklik taktiilne kaart 3D 00.00.00 45,00 € 45,00 € 45,00 €
0301 Tabletidosaator 15.03.06 24,50 € 13,00 € 8,50 €
0900 Kõnelev toidutermomeeter 22.27.06 39,60 € 13,00 € 8,60 €
0901 Kõnelev kehatermomeeter ingl. k. 22.27.06 39,60 € 13,00 € 8,60 €
0902 Kõnelev kehatermomeeter saksa k. 22.27.06 39,60 € 13,00 € 8,60 €
0903 kõnelev kehatermomeeter vene k 22.27.06 39,60 € 13,00 € 8,60 €
0904 Kõnelev vererõhuaparaat adapteriga 27.06 200,00 € 81,00 € 47,00 €
09041 SweetHeart adapter 00.00.00 29,00 € 29,00 € 29,00 €
09042 SweetHeart mansett 00.00.00 29,00 € 29,00 € 29,00 €
0906 Kõnelev saunakaal 27.06 150,00 € 45,00 € 15,00 €
0907 Pajakindad kuumuskindlad 15.03.06 40,00 € 28,50 € 24,00 €
0908 Libedusvastased rihmad 24.27.06 18,00 € 9,00 € 7,00 €
0909 Kõnelev kaelakell 22.27.12 105,00 € 21,00 € 10,50 €
0910 Kõnelev meeste käekell W4 ingl. k. 22.27.12 100,00 € 20,00 € 10,00 €
0911 Kõnelev naiste käekell W 12 ingl. k. 22.27.12 105,00 € 21,00 € 10,50 €
0912 Kõnelev käekell RNIB 22.27.12 90,00 € 18,00 € 9,00 €
0913 Taskukell Meteor 22.27.12 100,00 € 20,00 € 10,00 €
0914 Kaelakell Comet 22.27.12 170,00 € 86,00 € 75,50 €
0915 Kõnelev naiste disainkäekell 22.27.12 100,00 € 20,00 € 10,00 €
0916 Kaelakell Kaolina 22.27.12 200,00 € 116,00 € 105,50 €
0920 Punktidega käekell Arsa Unisex 22.27.12 105,00 € 21,00 € 10,50 €
0921 Taktiilne käekell RNIB meeste või naiste 22.27.12 90,00 € 18,00 € 9,00 €
0930 Käekell suurte numbritega 22.27.12 80,00 € 16,00 € 8,00 €
0939 Kõnelev taimer ingl k 22.27.12 50,00 € 10,00 € 7,00 €
0940 Taktiilne äratuskell 22.27.12 70,00 € 14,00 € 7,00 €
0941 Kõnega äratuskell UFO saksa keeles 22.27.12 40,00 € 8,00 € 7,00 €
0942 Äratuskell inglise või saksa keeles 22.27.12 40,00 € 8,00 € 7,00 €
0943 Kõnelev kuup-äratuskell 22.27.12 70,00 € 14,00 € 7,00 €
1200 Takistusteataja Ray 12.39.03 190,00 € 91,00 € 91,00 €
1201 Valge kepp kokkuvolditav Piccoflex 12.39.03 90,00 € 9,00 € 9,00 €
1202 Valge kepp Ambutech 12.39.03 110,00 € 11,00 € 11,00 €
12021 Ambutechi vahetusotsik tilk 00.00.00 5,00 € 5,00 € 5,00 €
12022 Ambutech vahetusotsik, pöörlev 00.00.00 18,00 € 18,00 € 18,00 €
12023 Ambutech vahetusotsik pliiats 00.00.00 5,00 € 5,00 € 5,00 €
12024 Ambutech vahetusotsik pall 00.00.00 28,00 € 28,00 € 28,00 €
1204 Valge tugikepp jääotsaga 12.39.03 80,00 € 8,00 € 8,00 €
1205 Valge kepp Pernu 12.39.03 100,00 € 10,00 € 10,00 €
1206 Teleskoopkepp 7-osaline 12.39.03 90,00 € 9,00 € 9,00 €
1207 Tugikepp 4-osaline 12.39.03 80,00 € 8,00 € 8,00 €
1210 iGlasses takistusmäärajaga prillid 12.39.03 140,00 € 41,00 € 41,00 €
1501 Nuga viilu paksuse määrajaga pk 15.03.06 82,00 € 70,50 € 66,00 €
1502 Nuga viilu paksuse määrajaga vk 15.03.06 82,00 € 70,50 € 66,00 €
1503 Kõnelev köögikaal Vivienne 27.06 150,00 € 45,00 € 15,00 €
15031 Adapter CareTec 00.00.00 20,00 € 20,00 € 20,00 €
1504 Kõnelev köögikaal Heidi 15.03.06 140,00 € 42,00 € 14,00 €
1505 Purgikaane avaja 24.27.06 10,00 € 7,00 € 7,00 €
1506 Vedeliku nivoo teataja heli 27.06 30,00 € 9,00 € 7,00 €
1507 Niidistaja 00.00.00 5,50 € 5,50 € 5,50 €
1508 Õmblusmasina niidistaja 00.00.00 7,00 € 7,00 € 7,00 €
1510 Opticare silmatilkade rakis 00.00.00 12,00 € 12,00 € 12,00 €
1511 Taktiilne mõõdukann 00.00.00 30,00 € 30,00 € 30,00 €
1512 Stabiilne termotass 00.00.00 30,00 € 30,00 € 30,00 €
1514 Topsihoidja 00.00.00 15,00 € 15,00 € 15,00 €
1515 Multimemo salvestaja 00.00.00 35,00 € 35,00 € 35,00 €
1604 Helimajakas Landsort 00.00.00 595,00 € 595,00 € 595,00 €
1605 Helimajakas puldiga 00.00.00 78,00 € 78,00 € 78,00 €
1606 Helimajakas Hällö 12.39.03 0,00 € 104,00 € 26,00 €
1701 Laualamp Kioto 18.06.06 90,00 € 18,00 € 9,00 €
1702 Laualamp Barcelona arvutikasutajale 18.06.06 105,00 € 23,00 € 12,70 €
1703 Suurendusklaas valgustusega 5D 22.03.09 100,40 € 23,00 € 23,00 €
1704 Suurendusklaas valgustusega 3D 22.03.09 100,40 € 23,00 € 23,00 €
1705 Suurendusklaas valgustusega MagniLupo 22 W 22.03.09 100,40 € 23,00 € 23,00 €
17051 Suurendusklaas valgustusega Magniled 3D 22.03.09 100,40 € 23,00 € 23,00 €
17052 Suurendusklaas valgustusega Magniled 5D 22.03.09 100,40 € 23,00 € 23,00 €
1706 Suurendusklaas valgustusega 8D 22.03.09 100,40 € 23,00 € 23,00 €
1990 Valgusfiltrid prillidele 22.03.03 130,00 € 13,00 € 13,00 €
1991 Kõnelev värvitoonimääraja Colorino 27.06 170,00 € 51,00 € 17,00 €
1992 Tumedad päikeseprillid Solar 22.03.03 50,00 € 7,00 € 7,00 €
2000 Valgustusega taskuluup SmartMag 3x 22.03.09 70,00 € 7,00 € 7,00 €
2001 Valgustusega taskuluup SmartMag 5x 22.03.09 70,00 € 7,00 € 7,00 €
2004 Monokkel Eschenbach Club 6*16 või 8*16 22.03.12 140,00 € 23,00 € 23,00 €
2005 TV-vaatamise prillid 22.03.12 130,00 € 13,00 € 13,00 €
2006 Lähivaatamise prillid Detail 22.03.12 130,00 € 13,00 € 13,00 €
2007 Kaugvaatamise prillid Event 22.03.12 130,00 € 13,00 € 13,00 €
2008 Valgustusega luup Ökolux 2,5 X (10D) 22.03.09 85,00 € 8,50 € 8,50 €
20081 Valgustusega luup Ökolux 2,0 X (6D) 22.03.09 85,00 € 8,50 € 8,50 €
20082 Valgustusega luup Ökolux 2,2 X (8D) 22.03.09 85,00 € 8,50 € 8,50 €
2009 Valgustusega luup Ökolux 3,0 X (12D) 22.03.09 85,00 € 8,50 € 8,50 €
2010 Valgustusega luup Ökolux 4,0 X (16D) 22.03.09 85,00 € 8,50 € 8,50 €
2011 Valgustusega luup Ökolux 5,0 X (20D) 22.03.09 85,00 € 8,50 € 8,50 €
2012 Valgustusega luup Ökolux 6,0 X (24D) 22.03.09 85,00 € 8,50 € 8,50 €
2013 Valgustusega luup Ökolux 7,0 X (28D) 22.03.09 85,00 € 8,50 € 8,50 €
2014 Valgustusega luup Ökolux 10,0 X (39D) 22.03.09 85,00 € 8,50 € 8,50 €
2015 Valgustusega luup Ökolux 12,0 X (48D) 22.03.09 85,00 € 8,50 € 8,50 €
2016 Valgustusega luup Ökolux 15,0 X (56D) 22.03.09 85,00 € 8,50 € 8,50 €
2017 Käsiluup Sempral valgustuseta 2,5 X (6D) 22.03.09 70,00 € 7,00 € 7,00 €
2018 Käsiluup Sempral valgustuseta 3,0 X (8D) 22.03.09 70,00 € 7,00 € 7,00 €
2019 Käsiluup Sempral valgustuseta 4,0 X (12D) 22.03.09 70,00 € 7,00 € 7,00 €
2020 Käsiluup Sempral valgustuseta 5,0 X (16D) 22.03.09 70,00 € 7,00 € 7,00 €
2021 Käsiluup Sempral valgustuseta 6,0 X (20D) 22.03.09 70,00 € 7,00 € 7,00 €
2022 Käsiluup Sempral valgustuseta 8,0 X (28D) 22.03.09 70,00 € 7,00 € 7,00 €
2023 Käsiluup Sempral valgustuseta 10,0 X (39D) 22.03.09 70,00 € 7,00 € 7,00 €
2024 Luubijalg Ökolux sarjale 22.03.09 70,00 € 7,00 € 7,00 €
2025 Taskuluup 3,5 X 22.03.09 32,00 € 7,00 € 7,00 €
2026 Taskuluup 5 X 22.03.09 30,00 € 7,00 € 7,00 €
2027 Taskuluup Johannes 5 X 22.03.09 19,00 € 7,00 € 7,00 €
2028 Õmblusluup 2 X 22.03.09 40,00 € 7,00 € 7,00 €
2029 Fresnel kileluup 3 X 22.03.09 16,00 € 7,00 € 7,00 €
2030 Fresnel kileluup 2 X 22.03.09 25,00 € 7,00 € 7,00 €
2031 Taskuluup ErgoPocket 4x 22.03.09 45,00 € 7,00 € 7,00 €
2032 Taskuluup ErgoPocket 7x, 10x, 12x või 15x 22.03.09 50,00 € 7,00 € 7,00 €
20321 Luup-joonlaud BL 2x 22.03.09 40,00 € 7,00 € 7,00 €
2033 Luup-joonlaud 2,5x 22.03.09 40,00 € 7,00 € 7,00 €
2034 Luup-joonlaud 2,0 X 22.03.09 40,00 € 7,00 € 7,00 €
2035 Peegel Justiina 3x suurendusega 22.03.09 25,00 € 7,00 € 7,00 €
2037 Luup lauakinnitusega Mini-Base 22.03.09 45,00 € 7,00 € 7,00 €
2038 Scribolux suurendusklaas 22.03.09 100,40 € 23,00 € 23,00 €
2039 Makrolux suurendusklaas 22.03.09 100,40 € 23,00 € 23,00 €
2044 Luup 19" LCD/TFT laiekraan arvutimonitorile 22.03.09 170,00 € 92,60 € 92,60 €
2045 Luup 22" LCD/TFT laiekraan arvutimonitorile 22.03.09 210,00 € 132,60 € 132,60 €
2098 Digitaalne luup explorē 5 22.03.18 740,00 € 92,00 € 92,00 €
2099 Digitaalne luup explorē 7 22.03.18 1 270,00 € 622,00 € 622,00 €
2100 Digitaalne luup MiniMax 22.03.18 400,00 € 40,00 € 40,00 €
2101 Digitaalne luup Ruby 22.03.18 630,00 € 63,00 € 63,00 €
21010 Ruby akude komplekt 00.00.00 25,00 € 25,00 € 25,00 €
2102 Digitaalne luup MaxLupe 22.03.18 1 270,00 € 622,00 € 622,00 €
2103 Digitaalne luup Ruby XL HD 22.03.18 740,00 € 92,00 € 92,00 €
2104 Digitaalne luup Optelec Compact 7" HD 22.03.18 1 490,00 € 842,00 € 842,00 €
2105 Lugemisteler Mezzo 22.03.18 2 400,00 € 1 752,00 € 1 752,00 €
2107 Lugemisteleviisor Tempus 22" HD 22.03.18 2 700,00 € 2 052,00 € 2 052,00 €
2108 Lugemisteler Magnilink Basic HD (23"-ekraan) 22.03.18 2 700,00 € 2 052,00 € 2 052,00 €
2109 Lugemisteler LVI Vision Premium HD 22.03.18 3 400,00 € 2 752,00 € 2 752,00 €
2111 Lugemisteler Topaz PHD 15" 22.03.18 2 400,00 € 1 752,00 € 1 752,00 €
2112 Lugemisteleviisor ML Zip 22.03.18 2 800,00 € 2 152,00 € 2 152,00 €
2116 Punktkirjakuvar Focus 14 blue 22.39.05 1 400,00 € 140,00 € 140,00 €
2117 Punktkirjakuvar Vario Ultra 20 22.39.05 3 300,00 € 2 040,00 € 2 040,00 €
2119 Punktkirjakuvar Focus 40 blue 22.39.05 3 200,00 € 1 940,00 € 1 940,00 €
2120 Punktkirjakuvar Focus 80 blue 22.39.05 7 740,00 € 6 480,00 € 6 480,00 €
2127 Punktkirjakuvar Alva 640 Comfort 22.39.05 3 200,00 € 1 940,00 € 1 940,00 €
2128 Punktkirjakuvar Alva BC640 22.39.05 4 500,00 € 3 240,00 € 3 240,00 €
2130 Ekraanilugemisprogramm JAWS Home 18 + SMA 22.39.12 1 100,00 € 110,00 € 110,00 €
2131 Jaws uuendus 12.0 to 18.0 + SMA 22.39.00 650,00 € 65,00 € 65,00 €
2132 Jaws uuendus 14.0 to 18.0 + SMA 22.39.00 550,00 € 55,00 € 55,00 €
2133 Jaws uuendus 15.0 to 18.0 + SMA 22.39.00 410,00 € 41,00 € 41,00 €
2134 Ekraanisuurendusprogramm MAGic Pro hääletoega + SMA 22.39.04 700,00 € 70,00 € 70,00 €
2135 Tarkvara MaGic uuendus 12.0-14.0 + SMA 22.39.00 410,00 € 41,00 € 41,00 €
2136 Tarkvara MaGic uuendus 13.0-14.0 + SMA 22.39.00 320,00 € 32,00 € 32,00 €
2137 Ekraanilugemisprogramm mobiiltelefonidele Mobile Speak 22.39.12 300,00 € 30,00 € 30,00 €
2138 Tarkvara MobileSpeak uuendus 22.39.00 140,00 € 14,00 € 14,00 €
2139 Ekraanisuurendusprogramm mobiiltelefonidele Mobile Magnifer 22.39.04 110,00 € 11,00 € 11,00 €
2141 Punktkirja kirjutusmasin Tatrapoint Standard 1 22.12.15 560,00 € 56,00 € 56,00 €
2142 Punktkirja kirjutusmasin Tatrapoint Standard 1 L/R 22.12.15 560,00 € 56,00 € 56,00 €
2143 Punktkirja kirjutusmasin Tatrapoint Standard 2 22.12.15 590,00 € 59,00 € 59,00 €
2144 Punktkirja kirjutusmasin Tatrapoint Standard 2 L/R 22.12.15 590,00 € 59,00 € 59,00 €
2145 Punktkirja kirjutusmasin Tatrapoint Adaptive 1 22.12.15 590,00 € 59,00 € 59,00 €
2146 Punktkirja kirjutusmasin Tatrapoint Adaptive 2 22.12.15 630,00 € 63,00 € 63,00 €
2148 Perkins Brailler kirjutusmasin 22.12.15 930,00 € 363,00 € 363,00 €
2153 Kõnelev taskukalkulaator eesti või vene keeles, patareitoitel 22.15.06 140,00 € 42,00 € 14,00 €
2154 Kõnelev taskukalkulaator eesti või vene keeles, adapteriga 22.15.06 160,00 € 55,00 € 25,00 €
2155 Kõnelev insernerklassi taskukalkulaator Plato eesti või vene keeles, patareitoitel 22.15.06 500,00 € 395,00 € 365,00 €
2156 Kõnelev insernerklassi kalkulaator Plato eesti või vene keeles, adapteriga 22.15.06 525,00 € 420,00 € 390,00 €
2157 Kalkulaator DoubleCheck XL vaegnägijatele kõnega 22.15.06 160,00 € 55,00 € 25,00 €
2158 Insenerklassi kalkulaator Platon XL vaegnägijatele kõnega 22.15.06 530,00 € 425,00 € 395,00 €
2160 Punktkirjavarustuse komplekt 22.12.12 70,00 € 7,00 € 7,00 €
2161 Punktkirja etiketikiled A4 22.12.12 70,00 € 7,00 € 7,00 €
2164 Ritmuff joonistusalus A4 + 50 kilet 22.12.12 95,00 € 9,50 € 9,50 €
2165 Ritmuff kiled A4 22.12.12 95,00 € 9,50 € 9,50 €
2166 Ritmuff graafikakomplekt DraftsMan 22.12.12 180,00 € 18,00 € 18,00 €
2167 Lisakiled ritmuff graafikakomplektile DraftsMan 22.12.12 95,00 € 9,50 € 9,50 €
2168 Punktkirjavihikud 22.12.12 70,00 € 7,00 € 7,00 €
2169 Punktkirjamärkmikud 22.12.12 70,00 € 7,00 € 7,00 €
2170 Punktkirjapaber 22.12.12 70,00 € 7,00 € 7,00 €
2172 Lugemisraam Red 22.30.15 51,00 € 15,30 € 7,00 €
2174 Reljeefse skaalaga joonlaud 300 mm 22.12.12 6,00 € 6,00 € 6,00 €
2175 Reljeefse skaalaga kolmnurk 22.12.12 1,20 € 1,20 € 1,20 €
2176 Reljeefse skaalaga mall 22.12.12 7,00 € 7,00 € 7,00 €
2177 Stiftid 22.12.12 1,90 € 1,90 € 1,90 €
2178 Marburgi punktkirjaraam A4 22.12.12 25,00 € 7,00 € 7,00 €
2179 Punktkirjaraam 9 rida 22.12.12 12,00 € 7,00 € 7,00 €
2180 Diktofon-daisy Olympus DM-7 22.18.03.02 370,00 € 37,00 € 37,00 €
2181 Helisalvesti Olympus LS-14 22.18.03.02 370,00 € 37,00 € 37,00 €
2182 Kõneleva menüüga digitaaldiktofon Olympus DM-670 22.18.03.02 290,00 € 29,00 € 29,00 €
2184 Diktofon Olympus DP-211 22.18.03.02 100,00 € 10,00 € 10,00 €
2186 Portatiivne daisypleier Victor Reader Stream 22.18.03.01 450,00 € 45,00 € 45,00 €
2189 Daisyplayer Victor Reader Stratus 12 eestikeelsena 22.18.03.01 450,00 € 45,00 € 45,00 €
2190 Daisyplayer Victor Reader Stratus 12M eestikeelsena 22.18.03.01 460,00 € 55,00 € 55,00 €
21901 Aku Victor Stratusele 00.00.00 23,00 € 23,00 € 23,00 €
21902 Aku Victor Streamile 00.00.00 23,00 € 23,00 € 23,00 €
21903 Adapter Victor Stratusele 00.00.00 18,00 € 18,00 € 18,00 €
2194 Piltkiirvalikuga lauatelefon 22.24.21 90,00 € 27,00 € 9,00 €
2195 Kõnelev lauatelefon 22.24.21 120,00 € 43,00 € 21,00 €
2196 Doro PhoneEasy 612 22.24.21 120,00 € 43,00 € 21,00 €
2197 Doro 5030 22.24.21 80,00 € 24,00 € 8,00 €
2301 Pinsetid luubi ja valgusega 22.03.09 18,00 € 7,00 € 7,00 €
2302 Punktkirjas etikettide valmistaja 22.12.12 170,00 € 17,00 € 17,00 €
2303 Etiketivalmistaja DymoQueen 22.12.12 40,00 € 7,00 € 7,00 €
2400 Esemete märgistamise süsteem FoxyReader 22.39.07 220,00 € 22,00 € 22,00 €
2404 Tekstituvastaja OpenBook Pearl 22.39.07 1 750,00 € 760,00 € 760,00 €
2406 Tekstituvastaja EasyReader 22.39.07 3 300,00 € 2 310,00 € 2 310,00 €
2407 Tekstituvastaja OpenBook Pluss 22.39.07 1 100,00 € 110,00 € 110,00 €
2408 KNFB Reader 22.39.07 180,00 € 18,00 € 18,00 €
2701 Kõnelev sise- ja välisõhutermomeeter 22.27.06 50,60 € 24,00 € 19,60 €
2702 Kõnelev mõõdulint TapeKing 27.06 140,00 € 42,00 € 14,00 €
2703 Patareitester heliga 27.06 60,00 € 18,00 € 7,00 €
2705 Akulaadija PowerMax kõneväljundiga eesti- või venekeelne 27.06 150,00 € 45,00 € 15,00 €
3001 Mängupall kõlisev 00.00.00 34,00 € 34,00 € 34,00 €
3002 Doomino reljeefse tähistusega 00.00.00 16,00 € 16,00 € 16,00 €
3003 Male pimedatele ja vaegnägijatele 00.00.00 55,00 € 55,00 € 55,00 €
3004 Kabe pimedatele ja vaegnägijatele 00.00.00 45,00 € 45,00 € 45,00 €
3005 Pööratav tähekuubik punktkirja õppimiseks 22.12.12 1,70 € 1,70 € 1,70 €
3006 Naela löömise abirakis 00.00.00 8,00 € 8,00 € 8,00 €
3007 Õngekork heliga 00.00.00 19,00 € 19,00 € 19,00 €
3008 Taktiilne Rubiku kuubik 00.00.00 32,00 € 32,00 € 32,00 €
3009 Lõhnavad viltpliiatsid 00.00.00 20,00 € 20,00 € 20,00 €
3010 Taktiilne silindriline pusle 00.00.00 22,00 € 22,00 € 22,00 €
3011 Taktiilne täring 00.00.00 6,00 € 6,00 € 6,00 €
3012 Bingo kaardid punktkirjas 00.00.00 10,00 € 10,00 € 10,00 €
3013 Hiiglaslik tekstuurne sasipundar 00.00.00 20,00 € 20,00 € 20,00 €
3014 Wikki Stix vaharibade stardikomplekt 00.00.00 22,00 € 22,00 € 22,00 €
3015 Wikki Stix vaharibad 00.00.00 10,00 € 10,00 € 10,00 €
3501 Rinnamärk pimedatele 00.00.00 3,00 € 3,00 € 3,00 €
3502 Soki paaritajad 10 tk 00.00.00 5,00 € 5,00 € 5,00 €
3503 Markeerimispasta 00.00.00 5,50 € 5,50 € 5,50 €
3504 Mündihoidja euro 00.00.00 17,00 € 17,00 € 17,00 €
3505 Rahatester euro 00.00.00 31,00 € 31,00 € 31,00 €
4000 Suurte kirjadega arvutiklaviatuur 00.00.00 55,00 € 55,00 € 55,00 €
4001 Punktkirjas klaviatuurimärgid 00.00.00 38,00 € 38,00 € 38,00 €
9100 Matkakell TravelTim 22.27.12 70,00 € 14,00 € 7,00 €
9101 Vibratsiooniga käekell “Vibralite” 22.27.12 105,00 € 21,00 € 10,50 €
9102 Äratuskell SonicBoom 22.27.12 105,00 € 21,00 € 10,50 €
9103 Matkakell Sonic Shaker 22.27.12 70,00 € 14,00 € 7,00 €
9200 Vaegkuuljate telefon Doro Magna 4000 22.24.21 120,00 € 43,00 € 21,00 €
9201 Telefonihelina võimendi Amplicall 10 22.24.21 80,00 € 24,00 € 8,00 €
9202 Telefonivõimendi EchoTel 22.24.21 70,00 € 21,00 € 7,00 €
9203 Telefonivõimendi “T-Loud” 22.24.21 60,00 € 18,00 € 7,00 €
9302 Kõnevõimendi EchoVoice 6 22.09.06 592,00 € 148,00 € 59,20 €
9303 Võimendisüsteem MegaLoop 00.00.00 270,00 € 270,00 € 270,00 €
9304 Võimendisüsteem MasterLoop 00.00.00 1 140,00 € 1 140,00 € 1 140,00 €
9308 Echo XL kommunikaator 22.06.06 432,00 € 257,00 € 207,00 €
9309 Comfort Contego süsteem 22.06.06 1 040,00 € 865,00 € 815,00 €
9311 Kommunikaator Comfort Duett 22.06.06 210,00 € 63,00 € 21,00 €
9350 Kommunikaator GoTalk 4+ 22.21.09 292,00 € 58,40 € 29,20 €
9351 Kommunikaator GoTalk 20+ 22.21.09 392,00 € 128,00 € 95,00 €
9352 Tarkvara kommunikaatorile BoardMaker 6.0 22.21.09 496,00 € 232,00 € 199,00 €
9415 GreenBrook traadita uksekell 22.27.03 80,80 € 29,00 € 14,20 €
9503 Bellman suitsualarmisüsteem 22.27.21 280,00 € 136,00 € 118,00 €
9504 Suitsualarm/äratuskell DeafGuard 22.27.21 280,00 € 136,00 € 118,00 €
9701 Vedeliku nivoo teataja vibro 22.27.09 32,00 € 9,60 € 7,00 €
9702 Patareitester vibratsiooniga 22.27.09 88,00 € 26,40 € 8,80 €
9703 Äratuskell Enter pimekurtidele 22.27.12 180,00 € 96,00 € 85,50 €

Kõik hinnad sisaldavad käibemaksu.

Müüja jätab endale õiguse reguleerida toodete hindu koefitsiendiga 0.5-1.5 juhul, kui tootjafirma või vahendajad teevad muudatusi tarnehindades.